createdAt,value
2017-10-24T00:00:05.591Z,40.7
2017-10-24T00:02:05.440Z,40.7
2017-10-24T00:04:05.233Z,40.7
2017-10-24T00:06:05.943Z,40.8
2017-10-24T00:08:05.735Z,40.7
2017-10-24T00:10:05.500Z,40.7
2017-10-24T00:12:05.725Z,40.7
2017-10-24T00:14:05.462Z,40.7
2017-10-24T00:16:05.200Z,40.8
2017-10-24T00:18:05.678Z,40.7
2017-10-24T00:20:05.404Z,40.7
2017-10-24T00:22:05.137Z,40.7
2017-10-24T00:24:05.950Z,40.8
2017-10-24T00:26:05.819Z,40.7
2017-10-24T00:28:08.259Z,40.7
2017-10-24T00:30:05.963Z,40.8
2017-10-24T00:32:05.673Z,40.7
2017-10-24T00:34:05.385Z,40.7
2017-10-24T00:36:05.260Z,40.7
2017-10-24T00:38:06.003Z,40.7
2017-10-24T00:40:08.229Z,40.7
2017-10-24T00:42:05.443Z,40.6
2017-10-24T00:44:14.467Z,40.7
2017-10-24T00:46:07.997Z,40.7
2017-10-24T00:48:05.666Z,40.7
2017-10-24T00:50:05.516Z,40.7
2017-10-24T00:52:07.792Z,40.7
2017-10-24T00:54:10.647Z,40.7
2017-10-24T00:56:05.360Z,40.7
2017-10-24T00:58:05.020Z,40.6
2017-10-24T01:00:05.723Z,40.6
2017-10-24T01:02:10.606Z,40.7
2017-10-24T01:04:07.833Z,40.7
2017-10-24T01:06:05.517Z,40.7
2017-10-24T01:08:15.379Z,40.7
2017-10-24T01:10:05.129Z,40.7
2017-10-24T01:12:05.819Z,40.6
2017-10-24T01:14:10.553Z,40.7
2017-10-24T01:16:05.800Z,40.7
2017-10-24T01:18:05.782Z,40.7
2017-10-24T01:20:07.694Z,40.7
2017-10-24T01:22:10.473Z,40.7
2017-10-24T01:24:07.720Z,40.6
2017-10-24T01:26:05.438Z,40.6
2017-10-24T01:28:07.652Z,40.7
2017-10-24T01:30:05.333Z,40.6
2017-10-24T01:32:05.025Z,40.6
2017-10-24T01:34:10.539Z,40.6
2017-10-24T01:36:10.350Z,40.6
2017-10-24T01:38:05.201Z,40.6
2017-10-24T01:40:08.528Z,40.6
2017-10-24T01:42:05.286Z,40.6
2017-10-24T01:44:05.003Z,40.6
2017-10-24T01:46:05.810Z,40.6
2017-10-24T01:48:05.527Z,40.6
2017-10-24T01:50:10.890Z,40.6
2017-10-24T01:52:05.730Z,40.6
2017-10-24T01:54:05.485Z,40.6
2017-10-24T01:56:05.739Z,40.6
2017-10-24T01:58:05.452Z,40.6
2017-10-24T02:00:05.160Z,40.1
2017-10-24T02:02:05.980Z,40.6
2017-10-24T02:04:08.235Z,40.6
2017-10-24T02:06:08.638Z,40.6
2017-10-24T02:08:06.059Z,40.6
2017-10-24T02:10:05.256Z,40.7
2017-10-24T02:12:05.955Z,40.7
2017-10-24T02:14:08.267Z,40.7
2017-10-24T02:16:05.543Z,40.7
2017-10-24T02:18:05.437Z,40.7
2017-10-24T02:20:07.799Z,40.6
2017-10-24T02:22:05.509Z,40.7
2017-10-24T02:24:05.277Z,40.7
2017-10-24T02:26:05.120Z,40.7
2017-10-24T02:28:05.836Z,40.7
2017-10-24T02:30:05.570Z,40.7
2017-10-24T02:32:05.282Z,40.7
2017-10-24T02:34:05.998Z,40.6
2017-10-24T02:36:07.713Z,40.9
2017-10-24T02:38:05.482Z,40.7
2017-10-24T02:40:05.726Z,40.7
2017-10-24T02:42:10.515Z,40.7
2017-10-24T02:44:08.290Z,40.7
2017-10-24T02:46:05.994Z,40.7
2017-10-24T02:48:05.723Z,40.7
2017-10-24T02:50:05.425Z,40.7
2017-10-24T02:52:07.668Z,40.7
2017-10-24T02:54:07.912Z,40.7
2017-10-24T02:56:08.113Z,40.6
2017-10-24T02:58:05.830Z,40.6
2017-10-24T03:00:07.605Z,40.7
2017-10-24T03:02:05.862Z,40.7
2017-10-24T03:04:10.228Z,40.7
2017-10-24T03:06:08.519Z,40.8
2017-10-24T03:08:05.241Z,40.7
2017-10-24T03:10:06.010Z,40.7
2017-10-24T03:12:05.854Z,40.7
2017-10-24T03:14:05.555Z,40.7
2017-10-24T03:16:05.751Z,41
2017-10-24T03:18:05.787Z,40.8
2017-10-24T03:20:05.602Z,40.7
2017-10-24T03:22:05.328Z,40.7
2017-10-24T03:24:05.145Z,40.7
2017-10-24T03:26:05.948Z,40.7
2017-10-24T03:28:05.694Z,40.7
2017-10-24T03:30:10.565Z,40.8
2017-10-24T03:32:05.843Z,40.8
2017-10-24T03:34:05.599Z,41
2017-10-24T03:36:05.347Z,40.7
2017-10-24T03:38:07.633Z,41
2017-10-24T03:40:10.905Z,40.8
2017-10-24T03:42:05.706Z,40.8
2017-10-24T03:44:05.548Z,40.8
2017-10-24T03:46:05.306Z,41
2017-10-24T03:48:06.006Z,41
2017-10-24T03:50:08.546Z,41
2017-10-24T03:52:07.765Z,41
2017-10-24T03:54:05.991Z,40.8
2017-10-24T03:56:08.304Z,40.8
2017-10-24T03:58:05.332Z,40.8
2017-10-24T04:00:05.011Z,40.7
2017-10-24T04:02:05.309Z,40.7
2017-10-24T04:04:05.035Z,40.7
2017-10-24T04:06:05.768Z,40.8
2017-10-24T04:08:05.529Z,40.8
2017-10-24T04:10:07.733Z,40.8
2017-10-24T04:12:05.419Z,40.8
2017-10-24T04:14:05.146Z,41
2017-10-24T04:16:05.909Z,40.8
2017-10-24T04:18:06.040Z,40.8
2017-10-24T04:20:08.240Z,40.8
2017-10-24T04:22:16.068Z,41
2017-10-24T04:24:08.351Z,41
2017-10-24T04:26:05.793Z,40.8
2017-10-24T04:28:05.644Z,40.8
2017-10-24T04:30:05.489Z,41
2017-10-24T04:32:05.791Z,40.8
2017-10-24T04:34:10.602Z,40.8
2017-10-24T04:36:05.270Z,40.8
2017-10-24T04:38:08.488Z,40.9
2017-10-24T04:40:05.755Z,40.9
2017-10-24T04:42:05.559Z,40.9
2017-10-24T04:44:05.323Z,41
2017-10-24T04:46:05.060Z,40.9
2017-10-24T04:48:05.838Z,40.9
2017-10-24T04:50:08.086Z,40.9
2017-10-24T04:52:14.501Z,40.9
2017-10-24T04:54:05.673Z,40.4
2017-10-24T04:56:05.512Z,40.9
2017-10-24T04:58:05.739Z,41.2
2017-10-24T05:00:05.952Z,41
2017-10-24T05:02:08.414Z,41
2017-10-24T05:04:05.413Z,41
2017-10-24T05:06:10.148Z,41.3
2017-10-24T05:08:05.913Z,41
2017-10-24T05:10:05.234Z,41
2017-10-24T05:12:05.539Z,41.1
2017-10-24T05:14:05.270Z,41.1
2017-10-24T05:16:21.123Z,41.1
2017-10-24T05:18:05.095Z,41.3
2017-10-24T05:20:13.404Z,41.1
2017-10-24T05:22:05.110Z,41.3
2017-10-24T05:24:05.781Z,41.3
2017-10-24T05:26:08.153Z,41.3
2017-10-24T05:28:05.921Z,41.1
2017-10-24T05:30:05.608Z,41.1
2017-10-24T05:32:05.974Z,41.4
2017-10-24T05:34:05.303Z,41.1
2017-10-24T05:36:05.202Z,41.4
2017-10-24T05:38:06.025Z,41.8
2017-10-24T05:40:05.794Z,41.6
2017-10-24T05:42:05.559Z,41.6
2017-10-24T05:44:05.288Z,41.5
2017-10-24T05:46:04.994Z,41.5
2017-10-24T05:48:05.670Z,41.5
2017-10-24T05:50:10.576Z,41.5
2017-10-24T05:52:05.377Z,41.5
2017-10-24T05:54:08.268Z,41.4
2017-10-24T05:56:06.031Z,41.4
2017-10-24T05:58:08.287Z,41.5
2017-10-24T06:00:05.539Z,41.5
2017-10-24T06:02:05.792Z,41.4
2017-10-24T06:04:05.615Z,41.5
2017-10-24T06:06:05.854Z,41.4
2017-10-24T06:08:05.647Z,41.4
2017-10-24T06:10:05.341Z,41.5
2017-10-24T06:12:05.101Z,41.4
2017-10-24T06:14:05.996Z,41.5
2017-10-24T06:16:05.695Z,41.5
2017-10-24T06:18:05.643Z,41.4
2017-10-24T06:20:05.472Z,41.4
2017-10-24T06:22:10.262Z,41.4
2017-10-24T06:24:06.017Z,41.4
2017-10-24T06:26:05.778Z,41.5
2017-10-24T06:28:08.062Z,41.5
2017-10-24T06:30:05.835Z,41.3
2017-10-24T06:32:05.599Z,41.4
2017-10-24T06:34:05.302Z,41.5
2017-10-24T06:36:05.995Z,41.2
2017-10-24T06:38:05.744Z,41.2
2017-10-24T06:40:05.454Z,41.5
2017-10-24T06:42:05.195Z,41.3
2017-10-24T06:44:05.675Z,41.3
2017-10-24T06:46:05.380Z,41.4
2017-10-24T06:48:05.139Z,41.3
2017-10-24T06:50:05.835Z,41.2
2017-10-24T06:52:05.520Z,41.2
2017-10-24T06:54:05.289Z,41.4
2017-10-24T06:56:05.035Z,41.5
2017-10-24T06:58:05.431Z,41.3
2017-10-24T07:00:22.851Z,41.3
2017-10-24T07:02:05.110Z,41.3
2017-10-24T07:04:05.743Z,41.6
2017-10-24T07:06:10.472Z,41.6
2017-10-24T07:08:05.180Z,41.6
2017-10-24T07:10:08.578Z,41.6
2017-10-24T07:12:05.906Z,41.6
2017-10-24T07:14:08.200Z,41.6
2017-10-24T07:16:05.552Z,41.6
2017-10-24T07:18:05.481Z,41.6
2017-10-24T07:20:05.306Z,41.5
2017-10-24T07:22:05.123Z,41.7
2017-10-24T07:24:05.883Z,41.5
2017-10-24T07:26:05.637Z,41.7
2017-10-24T07:28:05.378Z,41.7
2017-10-24T07:30:05.112Z,41.7
2017-10-24T07:32:05.804Z,41.6
2017-10-24T07:34:07.547Z,41.6
2017-10-24T07:36:10.295Z,41.7
2017-10-24T07:38:05.232Z,41.7
2017-10-24T07:40:08.484Z,41.7
2017-10-24T07:42:05.235Z,41.7
2017-10-24T07:44:06.002Z,41.7
2017-10-24T07:46:05.788Z,41.7
2017-10-24T07:48:07.546Z,41.7
2017-10-24T07:50:05.462Z,41.8
2017-10-24T07:52:13.207Z,41.8
2017-10-24T07:54:08.380Z,41.8
2017-10-24T07:56:06.073Z,41.8
2017-10-24T07:58:05.837Z,41.7
2017-10-24T08:00:05.105Z,41.8
2017-10-24T08:02:05.443Z,41.8
2017-10-24T08:04:07.718Z,41.7
2017-10-24T08:06:05.397Z,41.7
2017-10-24T08:08:07.712Z,41.8
2017-10-24T08:10:05.437Z,41.8
2017-10-24T08:12:10.753Z,41.8
2017-10-24T08:14:05.570Z,41.8
2017-10-24T08:16:07.778Z,41.8
2017-10-24T08:18:05.698Z,41.8
2017-10-24T08:20:07.962Z,41.9
2017-10-24T08:22:05.628Z,41.8
2017-10-24T08:24:08.002Z,41.8
2017-10-24T08:26:05.771Z,41.8
2017-10-24T08:28:08.071Z,41.9
2017-10-24T08:30:05.825Z,41.9
2017-10-24T08:32:05.744Z,41.9
2017-10-24T08:34:05.554Z,41.9
2017-10-24T08:36:07.772Z,42
2017-10-24T08:38:05.492Z,42
2017-10-24T08:40:07.733Z,42
2017-10-24T08:42:05.467Z,42
2017-10-24T08:44:05.308Z,42
2017-10-24T08:46:06.183Z,42
2017-10-24T08:48:05.938Z,42
2017-10-24T08:50:05.703Z,42.1
2017-10-24T08:52:05.402Z,42.1
2017-10-24T08:54:08.158Z,42
2017-10-24T08:56:05.979Z,42
2017-10-24T08:58:05.702Z,42.1
2017-10-24T09:00:05.986Z,42.1
2017-10-24T09:02:05.299Z,42.1
2017-10-24T09:04:04.978Z,42.4
2017-10-24T09:06:05.238Z,42.1
2017-10-24T09:08:06.120Z,42.2
2017-10-24T09:10:10.885Z,42.4
2017-10-24T09:12:08.206Z,42.3
2017-10-24T09:14:05.487Z,42.3
2017-10-24T09:16:10.267Z,42.4
2017-10-24T09:18:05.181Z,42.4
2017-10-24T09:20:08.453Z,42.4
2017-10-24T09:22:05.159Z,42.4
2017-10-24T09:24:05.793Z,42.4
2017-10-24T09:26:05.518Z,42.4
2017-10-24T09:28:05.228Z,42.4
2017-10-24T09:30:05.744Z,42.5
2017-10-24T09:32:05.497Z,42.5
2017-10-24T09:34:05.267Z,42.4
2017-10-24T09:36:05.460Z,42.5
2017-10-24T09:38:05.223Z,42.5
2017-10-24T09:40:05.934Z,42.5
2017-10-24T09:42:08.151Z,42.5
2017-10-24T09:44:06.024Z,42.5
2017-10-24T09:46:08.267Z,42.5
2017-10-24T09:48:08.488Z,42.6
2017-10-24T09:50:05.787Z,42.6
2017-10-24T09:52:05.588Z,42.5
2017-10-24T09:54:07.843Z,42.5
2017-10-24T09:56:06.596Z,42.5
2017-10-24T09:58:05.482Z,42.6
2017-10-24T10:00:05.767Z,42.6
2017-10-24T10:02:05.448Z,42.6
2017-10-24T10:04:05.155Z,42.6
2017-10-24T10:06:05.900Z,42.6
2017-10-24T10:08:07.757Z,42.7
2017-10-24T10:10:07.969Z,42.7
2017-10-24T10:12:05.719Z,42.7
2017-10-24T10:14:08.032Z,42.8
2017-10-24T10:16:08.245Z,42.8
2017-10-24T10:18:07.749Z,42.8
2017-10-24T10:20:06.063Z,42.8
2017-10-24T10:22:05.916Z,42.8
2017-10-24T10:24:05.621Z,42.8
2017-10-24T10:26:08.522Z,42.8
2017-10-24T10:28:05.257Z,42.8
2017-10-24T10:30:08.529Z,42.8
2017-10-24T10:32:07.783Z,43
2017-10-24T10:34:06.087Z,42.8
2017-10-24T10:36:05.798Z,42.8
2017-10-24T10:38:05.650Z,43
2017-10-24T10:40:05.370Z,42.8
2017-10-24T10:42:05.054Z,43
2017-10-24T10:44:05.801Z,42.8
2017-10-24T10:46:05.603Z,43.1
2017-10-24T10:48:05.305Z,42.9
2017-10-24T10:50:05.597Z,43
2017-10-24T10:52:05.321Z,43.2
2017-10-24T10:54:05.049Z,43.1
2017-10-24T10:56:08.302Z,43.6
2017-10-24T10:58:11.052Z,43.8
2017-10-24T11:00:05.753Z,43.8
2017-10-24T11:02:05.521Z,44.9
2017-10-24T11:04:05.252Z,44.5
2017-10-24T11:06:05.919Z,44.9
2017-10-24T11:08:05.652Z,45.3
2017-10-24T11:10:07.919Z,45.6
2017-10-24T11:12:08.224Z,45.8
2017-10-24T11:14:05.946Z,45.9
2017-10-24T11:16:05.690Z,46.4
2017-10-24T11:18:05.135Z,46.7
2017-10-24T11:20:05.832Z,46.7
2017-10-24T11:22:05.620Z,46.9
2017-10-24T11:24:05.951Z,47.3
2017-10-24T11:26:13.384Z,46.9
2017-10-24T11:28:05.071Z,46.9
2017-10-24T11:30:08.316Z,47.6
2017-10-24T11:32:05.636Z,47.4
2017-10-24T11:34:05.372Z,46.9
2017-10-24T11:36:05.093Z,46.9
2017-10-24T11:38:05.837Z,46.3
2017-10-24T11:40:05.550Z,47.3
2017-10-24T11:42:07.868Z,47.6
2017-10-24T11:44:15.680Z,48
2017-10-24T11:46:05.503Z,47.7
2017-10-24T11:48:05.262Z,47.7
2017-10-24T11:50:08.521Z,49.7
2017-10-24T11:52:05.211Z,49.5
2017-10-24T11:54:08.442Z,47.5
2017-10-24T11:56:05.180Z,47.4
2017-10-24T11:58:05.950Z,47.1
2017-10-24T12:00:05.620Z,47.4
2017-10-24T12:02:10.508Z,47.8
2017-10-24T12:04:07.826Z,47.6
2017-10-24T12:06:08.051Z,47.8
2017-10-24T12:08:05.748Z,47.8
2017-10-24T12:10:08.598Z,47.4
2017-10-24T12:12:05.415Z,47.3
2017-10-24T12:14:08.351Z,47.1
2017-10-24T12:16:05.109Z,46.9
2017-10-24T12:18:05.035Z,46.9
2017-10-24T12:20:05.733Z,46.9
2017-10-24T12:22:05.463Z,46.9
2017-10-24T12:24:07.726Z,46.9
2017-10-24T12:26:07.945Z,46.7
2017-10-24T12:28:05.251Z,46.7
2017-10-24T12:30:11.009Z,46.7
2017-10-24T12:32:12.867Z,46.9
2017-10-24T12:34:05.575Z,46.7
2017-10-24T12:36:05.301Z,46.8
2017-10-24T12:38:06.037Z,47.1
2017-10-24T12:40:08.362Z,46.7
2017-10-24T12:42:05.270Z,46.9
2017-10-24T12:44:08.713Z,46.7
2017-10-24T12:46:05.426Z,46.7
2017-10-24T12:48:05.671Z,46.9
2017-10-24T12:50:05.506Z,46.7
2017-10-24T12:52:05.197Z,46.7
2017-10-24T12:54:08.612Z,46.7
2017-10-24T12:56:05.367Z,46.7
2017-10-24T12:58:05.153Z,46.7
2017-10-24T13:00:05.859Z,46.7
2017-10-24T13:02:05.948Z,46.7
2017-10-24T13:04:05.629Z,46.7
2017-10-24T13:06:05.463Z,46.7
2017-10-24T13:08:08.855Z,46.7
2017-10-24T13:10:05.183Z,46.7
2017-10-24T13:12:05.865Z,46.7
2017-10-24T13:14:08.128Z,46.7
2017-10-24T13:16:05.548Z,46.7
2017-10-24T13:18:07.976Z,46.7
2017-10-24T13:20:05.694Z,46.7
2017-10-24T13:22:05.423Z,46.7
2017-10-24T13:24:07.807Z,46.7
2017-10-24T13:26:10.496Z,46.4
2017-10-24T13:28:06.781Z,46.7
2017-10-24T13:30:05.884Z,46.7
2017-10-24T13:32:05.857Z,46.7
2017-10-24T13:34:05.215Z,46.7
2017-10-24T13:36:05.956Z,46.7
2017-10-24T13:38:05.733Z,46.7
2017-10-24T13:40:07.966Z,46.7
2017-10-24T13:42:05.699Z,46.4
2017-10-24T13:44:07.991Z,46.4
2017-10-24T13:46:05.147Z,46.4
2017-10-24T13:48:05.980Z,46.4
2017-10-24T13:50:05.284Z,46.6
2017-10-24T13:52:07.604Z,46.4
2017-10-24T13:54:08.459Z,46.7
2017-10-24T13:56:05.843Z,46.4
2017-10-24T13:58:06.416Z,46.4
2017-10-24T14:00:06.189Z,46.7
2017-10-24T14:02:05.133Z,46.4
2017-10-24T14:04:06.896Z,46.4
2017-10-24T14:06:09.984Z,46.4
2017-10-24T14:08:05.981Z,46.4
2017-10-24T14:10:05.267Z,46.4
2017-10-24T14:12:06.197Z,46.4
2017-10-24T14:14:05.998Z,46.4
2017-10-24T14:16:06.271Z,46.4
2017-10-24T14:18:05.415Z,46.4
2017-10-24T14:20:06.959Z,46.4
2017-10-24T14:22:08.206Z,46.4
2017-10-24T14:24:09.176Z,46.4
2017-10-24T14:26:07.115Z,46.4
2017-10-24T14:28:05.314Z,46.4
2017-10-24T14:30:05.075Z,46.4
2017-10-24T14:32:05.470Z,46.4
2017-10-24T14:34:07.864Z,46.7
2017-10-24T14:36:05.594Z,46.7
2017-10-24T14:38:05.326Z,46.7
2017-10-24T14:40:05.099Z,46.4
2017-10-24T14:42:08.323Z,46.4
2017-10-24T14:44:05.229Z,46.7
2017-10-24T14:46:05.953Z,46.7
2017-10-24T14:48:13.257Z,46.5
2017-10-24T14:50:05.987Z,46.5
2017-10-24T14:52:05.765Z,46.1
2017-10-24T14:54:05.594Z,46.1
2017-10-24T14:56:05.345Z,46
2017-10-24T14:58:07.604Z,46.2
2017-10-24T15:00:07.835Z,46
2017-10-24T15:02:07.674Z,46.1
2017-10-24T15:04:05.383Z,46.4
2017-10-24T15:06:05.103Z,46
2017-10-24T15:08:05.829Z,46.2
2017-10-24T15:10:08.153Z,46.4
2017-10-24T15:12:05.413Z,46.4
2017-10-24T15:14:05.159Z,46.7
2017-10-24T15:16:05.895Z,46.4
2017-10-24T15:18:05.807Z,46.4
2017-10-24T15:20:05.596Z,46.5
2017-10-24T15:22:05.361Z,46.4
2017-10-24T15:24:05.588Z,46.6
2017-10-24T15:26:05.399Z,46.3
2017-10-24T15:28:05.096Z,46.5
2017-10-24T15:30:05.786Z,46.2
2017-10-24T15:32:05.059Z,46.2
2017-10-24T15:34:06.011Z,46.3
2017-10-24T15:36:05.773Z,46.2
2017-10-24T15:38:10.578Z,46.2
2017-10-24T15:40:15.338Z,46.1
2017-10-24T15:42:05.563Z,46.1
2017-10-24T15:44:05.533Z,46.3
2017-10-24T15:46:05.245Z,46
2017-10-24T15:48:05.994Z,45.9
2017-10-24T15:50:05.807Z,46.2
2017-10-24T15:52:05.545Z,46
2017-10-24T15:54:08.305Z,46.1
2017-10-24T15:56:05.124Z,46
2017-10-24T15:58:05.816Z,46
2017-10-24T16:00:08.098Z,46.2
2017-10-24T16:02:05.830Z,46.1
2017-10-24T16:04:05.614Z,46.1
2017-10-24T16:06:10.491Z,46.2
2017-10-24T16:08:05.769Z,46.2
2017-10-24T16:10:05.020Z,46.1
2017-10-24T16:12:05.790Z,46.1
2017-10-24T16:14:05.669Z,46.2
2017-10-24T16:16:05.398Z,46.1
2017-10-24T16:18:07.838Z,46.2
2017-10-24T16:20:05.617Z,46.1
2017-10-24T16:22:05.289Z,46.1
2017-10-24T16:24:05.521Z,46.3
2017-10-24T16:26:08.107Z,46.2
2017-10-24T16:28:05.784Z,46.3
2017-10-24T16:30:12.586Z,46
2017-10-24T16:32:05.327Z,46
2017-10-24T16:34:05.051Z,46.1
2017-10-24T16:36:05.769Z,46
2017-10-24T16:38:08.027Z,46
2017-10-24T16:40:05.723Z,46
2017-10-24T16:42:05.394Z,46
2017-10-24T16:44:05.080Z,46.2
2017-10-24T16:46:05.821Z,46.1
2017-10-24T16:48:10.614Z,46.1
2017-10-24T16:50:05.283Z,45.9
2017-10-24T16:52:06.007Z,46.1
2017-10-24T16:54:05.816Z,46.1
2017-10-24T16:56:05.543Z,46.1
2017-10-24T16:58:05.838Z,46.1
2017-10-24T17:00:05.546Z,46.1
2017-10-24T17:02:07.871Z,46.1
2017-10-24T17:04:07.633Z,46.1
2017-10-24T17:06:05.512Z,46.1
2017-10-24T17:08:05.267Z,46.1
2017-10-24T17:10:05.008Z,46.1
2017-10-24T17:12:05.727Z,46.1
2017-10-24T17:14:08.627Z,46.1
2017-10-24T17:16:05.355Z,46.1
2017-10-24T17:18:05.258Z,46.1
2017-10-24T17:20:05.994Z,46.2
2017-10-24T17:22:05.751Z,46.1
2017-10-24T17:24:13.010Z,46
2017-10-24T17:26:07.789Z,46
2017-10-24T17:28:05.536Z,46
2017-10-24T17:30:07.790Z,46.1
2017-10-24T17:32:05.504Z,46.1
2017-10-24T17:34:05.475Z,46.1
2017-10-24T17:36:10.258Z,46.1
2017-10-24T17:38:08.026Z,46.1
2017-10-24T17:40:05.716Z,46.1
2017-10-24T17:42:05.493Z,46.4
2017-10-24T17:44:05.231Z,46.2
2017-10-24T17:46:11.009Z,46.1
2017-10-24T17:48:05.294Z,46
2017-10-24T17:50:05.697Z,46.1
2017-10-24T17:52:20.584Z,46.1
2017-10-24T17:54:05.320Z,46.1
2017-10-24T17:56:05.086Z,45.9
2017-10-24T17:58:05.797Z,45.8
2017-10-24T18:00:05.017Z,45.9
2017-10-24T18:02:05.705Z,46.1
2017-10-24T18:04:05.420Z,45.9
2017-10-24T18:06:06.764Z,45.9
2017-10-24T18:08:05.557Z,45.8
2017-10-24T18:10:05.289Z,46.1
2017-10-24T18:12:05.528Z,46
2017-10-24T18:14:05.764Z,46
2017-10-24T18:16:05.566Z,46
2017-10-24T18:18:05.512Z,46
2017-10-24T18:20:07.789Z,46.3
2017-10-24T18:22:05.544Z,46.2
2017-10-24T18:24:05.206Z,46.3
2017-10-24T18:26:05.935Z,46.2
2017-10-24T18:28:05.658Z,46.5
2017-10-24T18:30:05.611Z,46.4
2017-10-24T18:32:10.336Z,46.4
2017-10-24T18:34:07.625Z,46.4
2017-10-24T18:36:05.566Z,46.2
2017-10-24T18:38:07.848Z,46.6
2017-10-24T18:40:05.107Z,46.6
2017-10-24T18:42:05.815Z,46.6
2017-10-24T18:44:05.575Z,46.6
2017-10-24T18:46:05.280Z,46.5
2017-10-24T18:48:08.464Z,46.6
2017-10-24T18:50:05.447Z,46.4
2017-10-24T18:52:05.124Z,46.6
2017-10-24T18:54:11.026Z,46.8
2017-10-24T18:56:08.560Z,46.9
2017-10-24T18:58:13.106Z,46.9
2017-10-24T19:00:07.899Z,46.9
2017-10-24T19:02:05.895Z,46.9
2017-10-24T19:04:07.093Z,46.9
2017-10-24T19:06:11.541Z,46.9
2017-10-24T19:08:05.460Z,46.9
2017-10-24T19:10:05.317Z,46.9
2017-10-24T19:12:05.676Z,46.9
2017-10-24T19:14:10.476Z,46.9
2017-10-24T19:16:10.206Z,47.1
2017-10-24T19:18:05.135Z,47.1
2017-10-24T19:20:05.931Z,47.1
2017-10-24T19:22:05.618Z,47.1
2017-10-24T19:24:05.319Z,47.4
2017-10-24T19:26:05.705Z,47.5
2017-10-24T19:28:05.905Z,47.7
2017-10-24T19:30:05.592Z,48
2017-10-24T19:32:06.287Z,47.8
2017-10-24T19:34:05.079Z,48
2017-10-24T19:36:05.025Z,47.5
2017-10-24T19:38:06.002Z,47.5
2017-10-24T19:40:05.733Z,47.5
2017-10-24T19:42:05.187Z,47.5
2017-10-24T19:44:05.888Z,47.5
2017-10-24T19:46:05.622Z,47.7
2017-10-24T19:48:05.338Z,47.5
2017-10-24T19:50:10.099Z,47.6
2017-10-24T19:52:05.809Z,47.4
2017-10-24T19:54:07.575Z,47.1
2017-10-24T19:56:07.802Z,47.1
2017-10-24T19:58:05.545Z,47.1
2017-10-24T20:00:10.335Z,47.1
2017-10-24T20:02:05.036Z,47.1
2017-10-24T20:04:05.768Z,47.1
2017-10-24T20:06:12.279Z,47.1
2017-10-24T20:08:13.696Z,47.1
2017-10-24T20:10:05.443Z,47.1
2017-10-24T20:12:05.655Z,47.1
2017-10-24T20:14:05.346Z,47.1
2017-10-24T20:16:08.110Z,47.1
2017-10-24T20:18:05.048Z,47.1
2017-10-24T20:20:05.975Z,47.1
2017-10-24T20:22:08.453Z,47.1
2017-10-24T20:24:12.776Z,47.1
2017-10-24T20:26:16.211Z,47.1
2017-10-24T20:28:06.577Z,47.1
2017-10-24T20:30:05.311Z,47.1
2017-10-24T20:32:06.027Z,47.1
2017-10-24T20:34:06.131Z,47.1
2017-10-24T20:36:06.481Z,47.1
2017-10-24T20:38:05.710Z,47.1
2017-10-24T20:40:05.426Z,47.1
2017-10-24T20:42:05.255Z,47.1
2017-10-24T20:44:06.119Z,47.1
2017-10-24T20:46:05.836Z,47.1
2017-10-24T20:48:08.078Z,47.1
2017-10-24T20:50:05.081Z,46.9
2017-10-24T20:52:05.789Z,47.1
2017-10-24T20:54:05.506Z,47.1
2017-10-24T20:56:05.434Z,46.9
2017-10-24T20:58:05.174Z,47.1
2017-10-24T21:00:15.977Z,46.9
2017-10-24T21:02:05.763Z,46.9
2017-10-24T21:04:05.499Z,46.9
2017-10-24T21:06:05.293Z,47.1
2017-10-24T21:08:10.728Z,46.9
2017-10-24T21:10:05.440Z,46.9
2017-10-24T21:12:05.173Z,46.9
2017-10-24T21:14:05.887Z,47.1
2017-10-24T21:16:05.807Z,46.9
2017-10-24T21:18:05.703Z,47.1
2017-10-24T21:20:05.522Z,46.9
2017-10-24T21:22:07.735Z,46.9
2017-10-24T21:24:05.412Z,47
2017-10-24T21:26:05.208Z,47
2017-10-24T21:28:05.948Z,46.8
2017-10-24T21:30:10.769Z,46.7
2017-10-24T21:32:05.054Z,46.6
2017-10-24T21:34:05.755Z,46.9
2017-10-24T21:36:05.451Z,46.7
2017-10-24T21:38:05.300Z,46.7
2017-10-24T21:40:05.018Z,46.6
2017-10-24T21:42:05.822Z,46.8
2017-10-24T21:44:05.535Z,46.7
2017-10-24T21:46:05.380Z,46.6
2017-10-24T21:48:07.662Z,46.6
2017-10-24T21:50:05.510Z,46.6
2017-10-24T21:52:05.752Z,46.6
2017-10-24T21:54:05.487Z,46.6
2017-10-24T21:56:06.004Z,46.5
2017-10-24T21:58:05.771Z,46.5
2017-10-24T22:00:05.661Z,46.5
2017-10-24T22:02:05.362Z,46.4
2017-10-24T22:04:07.581Z,46.5
2017-10-24T22:06:10.365Z,46.5
2017-10-24T22:08:05.149Z,46.4
2017-10-24T22:10:08.511Z,46.5
2017-10-24T22:12:05.184Z,46.4
2017-10-24T22:14:08.706Z,46.4
2017-10-24T22:16:07.981Z,46.5
2017-10-24T22:18:05.894Z,46.5
2017-10-24T22:20:05.277Z,46.5
2017-10-24T22:22:08.592Z,46.5
2017-10-24T22:24:10.315Z,46.5
2017-10-24T22:26:06.017Z,46.5
2017-10-24T22:28:08.465Z,46.5
2017-10-24T22:30:05.800Z,46.5
2017-10-24T22:32:05.843Z,46.5
2017-10-24T22:34:05.557Z,46.5
2017-10-24T22:36:05.298Z,46.4
2017-10-24T22:38:10.039Z,46.5
2017-10-24T22:40:07.776Z,46.6
2017-10-24T22:42:06.027Z,46.6
2017-10-24T22:44:05.306Z,46.6
2017-10-24T22:46:05.994Z,46.6
2017-10-24T22:48:08.239Z,46.6
2017-10-24T22:50:08.622Z,46.6
2017-10-24T22:52:05.306Z,46.6
2017-10-24T22:54:05.109Z,46.7
2017-10-24T22:56:08.457Z,46.6
2017-10-24T22:58:05.233Z,46.6
2017-10-24T23:00:08.517Z,46.6
2017-10-24T23:02:07.783Z,46.6
2017-10-24T23:04:06.003Z,46.6
2017-10-24T23:06:08.249Z,46.6
2017-10-24T23:08:06.151Z,46.6
2017-10-24T23:10:08.377Z,46.7
2017-10-24T23:12:05.586Z,46.8
2017-10-24T23:14:07.918Z,46.8
2017-10-24T23:16:05.605Z,46.8
2017-10-24T23:18:08.099Z,46.7
2017-10-24T23:20:05.769Z,46.7
2017-10-24T23:22:05.446Z,46.9
2017-10-24T23:24:10.252Z,47.1
2017-10-24T23:26:05.959Z,47
2017-10-24T23:28:05.644Z,46.8
2017-10-24T23:30:05.436Z,46.7
2017-10-24T23:32:05.688Z,46.7
2017-10-24T23:34:05.505Z,46.9
2017-10-24T23:36:05.805Z,46.8
2017-10-24T23:38:05.536Z,46.8
2017-10-24T23:40:07.732Z,47.1
2017-10-24T23:42:05.581Z,47
2017-10-24T23:44:05.282Z,46.9
2017-10-24T23:46:05.985Z,46.8
2017-10-24T23:48:10.463Z,46.8
2017-10-24T23:50:05.230Z,46.8
2017-10-24T23:52:07.968Z,46.6
2017-10-24T23:54:10.731Z,46.7
2017-10-24T23:56:08.014Z,46.7
2017-10-24T23:58:05.749Z,46.7
